Orbital elements of FENGYUN 1C DEB
| Launched | 9 May 1999 |
| Flight ended | – |
| Launch site | Taiyuan Space Center, PRC |
| Owner | People's Republic of China |
| NORAD ID | 30739 |
| Date fetched |
Epoch osculation |
Inc. [°] |
Ecc. | RA asc node [hr] |
Arg Peri. [°] |
Mean anom [°] |
Mean motion [rev/day] |
Abs. mag |
| Date fetched |
Epoch osculation |
Inc. [°] |
Ecc. | RA asc node [hr] |
Arg Peri. [°] |
Mean anom [°] |
Mean motion [rev/day] |
Abs. mag |
| 2026 May 08 17:57 | 2026 May 04 17:13:40 | 98.7068 | 0.00995 | 7.5557 | 267.9172 | 271.5469 | 14.15173 | – |
| 2026 May 07 17:58 | 2026 May 04 17:13:40 | 98.7068 | 0.00995 | 7.5557 | 267.9172 | 271.5469 | 14.15173 | – |
| 2026 May 06 17:57 | 2026 May 04 17:13:40 | 98.7068 | 0.00995 | 7.5557 | 267.9172 | 271.5469 | 14.15173 | – |
| 2026 May 05 17:57 | 2026 May 04 17:13:40 | 98.7068 | 0.00995 | 7.5557 | 267.9172 | 271.5469 | 14.15173 | – |
| 2026 May 04 17:57 | 2026 Apr 30 11:18:13 | 98.7064 | 0.00996 | 7.2793 | 280.2420 | 271.5469 | 14.15173 | – |
| 2026 May 03 17:57 | 2026 Apr 30 11:18:13 | 98.7064 | 0.00996 | 7.2793 | 280.2420 | 271.5469 | 14.15173 | – |
| 2026 May 02 17:57 | 2026 Apr 30 11:18:13 | 98.7064 | 0.00996 | 7.2793 | 280.2420 | 271.5469 | 14.15173 | – |
| 2026 May 01 17:56 | 2026 Apr 30 11:18:13 | 98.7064 | 0.00996 | 7.2793 | 280.2420 | 271.5469 | 14.15173 | – |
| 2026 Apr 30 17:56 | 2026 Apr 30 11:18:13 | 98.7064 | 0.00996 | 7.2793 | 280.2420 | 271.5469 | 14.15173 | – |
| 2026 Apr 29 17:57 | 2026 Apr 24 11:03:17 | 98.7064 | 0.00997 | 6.8880 | 297.6162 | 271.5469 | 14.15173 | – |
| 2026 Apr 28 17:56 | 2026 Apr 24 11:03:17 | 98.7064 | 0.00997 | 6.8880 | 297.6162 | 271.5469 | 14.15173 | – |
| 2026 Apr 27 17:58 | 2026 Apr 24 11:03:17 | 98.7064 | 0.00997 | 6.8880 | 297.6162 | 271.5469 | 14.15173 | – |
| 2026 Apr 26 17:58 | 2026 Apr 24 11:03:17 | 98.7064 | 0.00997 | 6.8880 | 297.6162 | 271.5469 | 14.15173 | – |
| 2026 Apr 25 17:58 | 2026 Apr 24 11:03:17 | 98.7064 | 0.00997 | 6.8880 | 297.6162 | 271.5469 | 14.15173 | – |
| 2026 Apr 24 17:59 | 2026 Apr 24 11:03:17 | 98.7064 | 0.00997 | 6.8880 | 297.6162 | 271.5469 | 14.15173 | – |
| 2026 Apr 23 17:57 | 2026 Apr 19 05:03:46 | 98.7063 | 0.01000 | 6.5463 | 312.7730 | 271.5469 | 14.15173 | – |
| 2026 Apr 22 17:57 | 2026 Apr 19 05:03:46 | 98.7063 | 0.01000 | 6.5463 | 312.7730 | 271.5469 | 14.15173 | – |
| 2026 Apr 21 17:57 | 2026 Apr 19 05:03:46 | 98.7063 | 0.01000 | 6.5463 | 312.7730 | 271.5469 | 14.15173 | – |
| 2026 Apr 20 17:57 | 2026 Apr 19 05:03:46 | 98.7063 | 0.01000 | 6.5463 | 312.7730 | 271.5469 | 14.15173 | – |
| 2026 Apr 19 17:58 | 2026 Apr 19 05:03:46 | 98.7063 | 0.01000 | 6.5463 | 312.7730 | 271.5469 | 14.15173 | – |
| 2026 Apr 18 17:56 | 2026 Apr 13 04:49:03 | 98.7052 | 0.01003 | 6.1550 | 330.0786 | 271.5469 | 14.15173 | – |
| 2026 Apr 16 17:57 | 2026 Apr 13 04:49:03 | 98.7052 | 0.01003 | 6.1550 | 330.0786 | 271.5469 | 14.15173 | – |
| 2026 Apr 14 17:57 | 2026 Apr 13 04:49:03 | 98.7052 | 0.01003 | 6.1550 | 330.0786 | 271.5469 | 14.15173 | – |
| 2026 Apr 13 17:57 | 2026 Apr 13 04:49:03 | 98.7052 | 0.01003 | 6.1550 | 330.0786 | 271.5469 | 14.15173 | – |
| 2026 Apr 12 17:57 | 2026 Apr 08 09:54:08 | 98.7054 | 0.01006 | 5.8434 | 343.8164 | 271.5469 | 14.15173 | – |
| 2026 Apr 11 17:57 | 2026 Apr 08 09:54:08 | 98.7054 | 0.01006 | 5.8434 | 343.8164 | 271.5469 | 14.15173 | – |